sensor_id;sensor_type;location;lat;lon;timestamp;P1;durP1;ratioP1;P2;durP2;ratioP2
65668;SDS011;52376;47.448;19.354;2023-06-10T00:00:16;1.00;;;0.57;;
65668;SDS011;52376;47.448;19.354;2023-06-10T00:02:44;2.03;;;0.73;;
65668;SDS011;52376;47.448;19.354;2023-06-10T00:05:12;0.85;;;0.60;;
65668;SDS011;52376;47.448;19.354;2023-06-10T00:07:40;0.75;;;0.62;;
65668;SDS011;52376;47.448;19.354;2023-06-10T00:10:09;0.95;;;0.80;;
65668;SDS011;52376;47.448;19.354;2023-06-10T00:12:37;0.80;;;0.50;;
65668;SDS011;52376;47.448;19.354;2023-06-10T00:15:05;0.75;;;0.52;;
65668;SDS011;52376;47.448;19.354;2023-06-10T00:17:34;1.50;;;0.50;;
65668;SDS011;52376;47.448;19.354;2023-06-10T00:20:02;0.37;;;0.37;;
65668;SDS011;52376;47.448;19.354;2023-06-10T00:22:30;0.45;;;0.40;;
65668;SDS011;52376;47.448;19.354;2023-06-10T00:24:58;1.02;;;0.68;;
65668;SDS011;52376;47.448;19.354;2023-06-10T00:27:25;1.58;;;0.45;;
65668;SDS011;52376;47.448;19.354;2023-06-10T00:29:53;0.57;;;0.22;;
65668;SDS011;52376;47.448;19.354;2023-06-10T00:32:21;0.75;;;0.40;;
65668;SDS011;52376;47.448;19.354;2023-06-10T00:34:49;0.40;;;0.40;;
65668;SDS011;52376;47.448;19.354;2023-06-10T00:37:16;0.20;;;0.15;;
65668;SDS011;52376;47.448;19.354;2023-06-10T00:39:45;1.58;;;0.95;;
65668;SDS011;52376;47.448;19.354;2023-06-10T00:42:12;0.47;;;0.47;;
65668;SDS011;52376;47.448;19.354;2023-06-10T00:44:40;0.20;;;0.20;;
65668;SDS011;52376;47.448;19.354;2023-06-10T00:47:10;0.22;;;0.20;;
65668;SDS011;52376;47.448;19.354;2023-06-10T00:49:37;0.43;;;0.30;;
65668;SDS011;52376;47.448;19.354;2023-06-10T00:52:05;0.43;;;0.43;;
65668;SDS011;52376;47.448;19.354;2023-06-10T00:54:34;0.95;;;0.20;;
65668;SDS011;52376;47.448;19.354;2023-06-10T00:57:02;0.30;;;0.30;;
65668;SDS011;52376;47.448;19.354;2023-06-10T00:59:30;0.77;;;0.57;;
65668;SDS011;52376;47.448;19.354;2023-06-10T01:01:59;1.00;;;0.45;;
65668;SDS011;52376;47.448;19.354;2023-06-10T01:04:27;0.28;;;0.28;;
65668;SDS011;52376;47.448;19.354;2023-06-10T01:09:33;0.43;;;0.25;;
65668;SDS011;52376;47.448;19.354;2023-06-10T01:14:51;0.93;;;0.30;;
65668;SDS011;52376;47.448;19.354;2023-06-10T01:17:19;1.45;;;0.95;;
65668;SDS011;52376;47.448;19.354;2023-06-10T01:19:56;0.50;;;0.37;;
65668;SDS011;52376;47.448;19.354;2023-06-10T01:22:25;0.40;;;0.40;;
65668;SDS011;52376;47.448;19.354;2023-06-10T01:24:54;0.68;;;0.37;;
65668;SDS011;52376;47.448;19.354;2023-06-10T01:27:22;0.17;;;0.17;;
65668;SDS011;52376;47.448;19.354;2023-06-10T01:29:54;0.82;;;0.73;;
65668;SDS011;52376;47.448;19.354;2023-06-10T01:32:47;0.55;;;0.20;;
65668;SDS011;52376;47.448;19.354;2023-06-10T01:35:18;1.12;;;0.73;;
65668;SDS011;52376;47.448;19.354;2023-06-10T01:37:47;0.88;;;0.40;;
65668;SDS011;52376;47.448;19.354;2023-06-10T01:40:16;0.37;;;0.37;;
65668;SDS011;52376;47.448;19.354;2023-06-10T01:42:44;0.43;;;0.43;;
65668;SDS011;52376;47.448;19.354;2023-06-10T01:45:12;0.30;;;0.30;;
65668;SDS011;52376;47.448;19.354;2023-06-10T01:47:40;1.62;;;0.88;;
65668;SDS011;52376;47.448;19.354;2023-06-10T01:50:08;1.20;;;1.10;;
65668;SDS011;52376;47.448;19.354;2023-06-10T01:52:37;0.13;;;0.10;;
65668;SDS011;52376;47.448;19.354;2023-06-10T01:55:04;0.10;;;0.10;;
65668;SDS011;52376;47.448;19.354;2023-06-10T01:57:33;0.22;;;0.22;;
65668;SDS011;52376;47.448;19.354;2023-06-10T02:00:01;0.55;;;0.20;;
65668;SDS011;52376;47.448;19.354;2023-06-10T02:02:29;0.57;;;0.50;;
65668;SDS011;52376;47.448;19.354;2023-06-10T02:04:57;0.57;;;0.35;;
65668;SDS011;52376;47.448;19.354;2023-06-10T02:07:24;0.50;;;0.47;;
65668;SDS011;52376;47.448;19.354;2023-06-10T02:09:52;0.47;;;0.47;;
65668;SDS011;52376;47.448;19.354;2023-06-10T02:12:21;0.60;;;0.40;;
65668;SDS011;52376;47.448;19.354;2023-06-10T02:14:49;0.73;;;0.65;;
65668;SDS011;52376;47.448;19.354;2023-06-10T02:17:17;1.52;;;0.73;;
65668;SDS011;52376;47.448;19.354;2023-06-10T02:19:45;0.43;;;0.43;;
65668;SDS011;52376;47.448;19.354;2023-06-10T02:22:12;0.30;;;0.30;;
65668;SDS011;52376;47.448;19.354;2023-06-10T02:24:40;0.62;;;0.30;;
65668;SDS011;52376;47.448;19.354;2023-06-10T02:27:08;0.28;;;0.17;;
65668;SDS011;52376;47.448;19.354;2023-06-10T02:29:36;0.32;;;0.30;;
65668;SDS011;52376;47.448;19.354;2023-06-10T02:32:04;0.80;;;0.55;;
65668;SDS011;52376;47.448;19.354;2023-06-10T02:34:36;1.02;;;0.65;;
65668;SDS011;52376;47.448;19.354;2023-06-10T02:37:04;0.47;;;0.37;;
65668;SDS011;52376;47.448;19.354;2023-06-10T02:39:32;0.32;;;0.22;;
65668;SDS011;52376;47.448;19.354;2023-06-10T02:42:00;0.90;;;0.40;;
65668;SDS011;52376;47.448;19.354;2023-06-10T02:44:28;3.80;;;0.95;;
65668;SDS011;52376;47.448;19.354;2023-06-10T02:46:55;0.20;;;0.20;;
65668;SDS011;52376;47.448;19.354;2023-06-10T02:49:23;0.50;;;0.50;;
65668;SDS011;52376;47.448;19.354;2023-06-10T02:51:51;0.37;;;0.28;;
65668;SDS011;52376;47.448;19.354;2023-06-10T02:54:19;0.40;;;0.40;;
65668;SDS011;52376;47.448;19.354;2023-06-10T02:56:47;1.25;;;0.57;;
65668;SDS011;52376;47.448;19.354;2023-06-10T02:59:16;0.95;;;0.70;;
65668;SDS011;52376;47.448;19.354;2023-06-10T03:01:44;0.20;;;0.20;;
65668;SDS011;52376;47.448;19.354;2023-06-10T03:04:13;0.10;;;0.10;;
65668;SDS011;52376;47.448;19.354;2023-06-10T03:06:42;3.33;;;1.00;;
65668;SDS011;52376;47.448;19.354;2023-06-10T03:09:10;1.58;;;0.68;;
65668;SDS011;52376;47.448;19.354;2023-06-10T03:11:39;0.30;;;0.30;;
65668;SDS011;52376;47.448;19.354;2023-06-10T03:14:07;1.10;;;0.45;;
65668;SDS011;52376;47.448;19.354;2023-06-10T03:16:34;0.75;;;0.43;;
65668;SDS011;52376;47.448;19.354;2023-06-10T03:19:02;0.47;;;0.45;;
65668;SDS011;52376;47.448;19.354;2023-06-10T03:21:31;0.22;;;0.22;;
65668;SDS011;52376;47.448;19.354;2023-06-10T03:23:59;0.80;;;0.30;;
65668;SDS011;52376;47.448;19.354;2023-06-10T03:26:27;0.65;;;0.20;;
65668;SDS011;52376;47.448;19.354;2023-06-10T03:28:55;0.47;;;0.40;;
65668;SDS011;52376;47.448;19.354;2023-06-10T03:31:23;1.17;;;0.57;;
65668;SDS011;52376;47.448;19.354;2023-06-10T03:33:51;1.62;;;0.25;;
65668;SDS011;52376;47.448;19.354;2023-06-10T03:36:19;0.50;;;0.40;;
65668;SDS011;52376;47.448;19.354;2023-06-10T03:38:47;0.20;;;0.20;;
65668;SDS011;52376;47.448;19.354;2023-06-10T03:41:15;0.32;;;0.30;;
65668;SDS011;52376;47.448;19.354;2023-06-10T03:43:43;0.43;;;0.37;;
65668;SDS011;52376;47.448;19.354;2023-06-10T03:46:12;0.60;;;0.47;;
65668;SDS011;52376;47.448;19.354;2023-06-10T03:48:39;1.17;;;0.65;;
65668;SDS011;52376;47.448;19.354;2023-06-10T03:51:08;1.30;;;0.50;;
65668;SDS011;52376;47.448;19.354;2023-06-10T03:53:35;1.12;;;0.30;;
65668;SDS011;52376;47.448;19.354;2023-06-10T03:56:03;0.30;;;0.30;;
65668;SDS011;52376;47.448;19.354;2023-06-10T03:58:31;0.65;;;0.45;;
65668;SDS011;52376;47.448;19.354;2023-06-10T04:00:59;0.10;;;0.10;;
65668;SDS011;52376;47.448;19.354;2023-06-10T04:03:27;0.90;;;0.30;;
65668;SDS011;52376;47.448;19.354;2023-06-10T04:05:56;0.62;;;0.37;;
65668;SDS011;52376;47.448;19.354;2023-06-10T04:08:25;0.47;;;0.30;;
65668;SDS011;52376;47.448;19.354;2023-06-10T04:10:53;0.10;;;0.10;;
65668;SDS011;52376;47.448;19.354;2023-06-10T04:13:21;0.80;;;0.15;;
65668;SDS011;52376;47.448;19.354;2023-06-10T04:15:50;1.87;;;0.82;;
65668;SDS011;52376;47.448;19.354;2023-06-10T04:18:18;0.15;;;0.15;;
65668;SDS011;52376;47.448;19.354;2023-06-10T04:20:46;1.08;;;0.60;;
65668;SDS011;52376;47.448;19.354;2023-06-10T04:23:14;0.55;;;0.30;;
65668;SDS011;52376;47.448;19.354;2023-06-10T04:25:42;0.25;;;0.22;;
65668;SDS011;52376;47.448;19.354;2023-06-10T04:28:11;0.35;;;0.35;;
65668;SDS011;52376;47.448;19.354;2023-06-10T04:30:40;0.47;;;0.47;;
65668;SDS011;52376;47.448;19.354;2023-06-10T04:33:08;0.90;;;0.80;;
65668;SDS011;52376;47.448;19.354;2023-06-10T04:35:36;0.25;;;0.22;;
65668;SDS011;52376;47.448;19.354;2023-06-10T04:38:04;0.25;;;0.17;;
65668;SDS011;52376;47.448;19.354;2023-06-10T04:40:32;0.65;;;0.65;;
65668;SDS011;52376;47.448;19.354;2023-06-10T04:43:00;0.98;;;0.57;;
65668;SDS011;52376;47.448;19.354;2023-06-10T04:45:28;1.35;;;0.65;;
65668;SDS011;52376;47.448;19.354;2023-06-10T04:47:56;0.28;;;0.20;;
65668;SDS011;52376;47.448;19.354;2023-06-10T04:50:24;0.55;;;0.37;;
65668;SDS011;52376;47.448;19.354;2023-06-10T04:52:53;1.95;;;0.62;;
65668;SDS011;52376;47.448;19.354;2023-06-10T04:55:21;0.32;;;0.30;;
65668;SDS011;52376;47.448;19.354;2023-06-10T04:57:49;0.65;;;0.50;;
65668;SDS011;52376;47.448;19.354;2023-06-10T05:00:19;0.50;;;0.50;;
65668;SDS011;52376;47.448;19.354;2023-06-10T05:02:47;1.17;;;0.55;;
65668;SDS011;52376;47.448;19.354;2023-06-10T05:05:18;1.25;;;0.85;;
65668;SDS011;52376;47.448;19.354;2023-06-10T05:07:46;1.35;;;0.93;;
65668;SDS011;52376;47.448;19.354;2023-06-10T05:10:15;0.45;;;0.20;;
65668;SDS011;52376;47.448;19.354;2023-06-10T05:12:43;1.12;;;0.82;;
65668;SDS011;52376;47.448;19.354;2023-06-10T05:15:10;2.40;;;1.17;;
65668;SDS011;52376;47.448;19.354;2023-06-10T05:17:39;0.68;;;0.43;;
65668;SDS011;52376;47.448;19.354;2023-06-10T05:20:07;1.48;;;0.60;;
65668;SDS011;52376;47.448;19.354;2023-06-10T05:22:35;2.47;;;0.85;;
65668;SDS011;52376;47.448;19.354;2023-06-10T05:25:03;1.25;;;0.65;;
65668;SDS011;52376;47.448;19.354;2023-06-10T05:27:31;0.52;;;0.30;;
65668;SDS011;52376;47.448;19.354;2023-06-10T05:29:58;2.50;;;1.77;;
65668;SDS011;52376;47.448;19.354;2023-06-10T05:32:28;1.65;;;0.95;;
65668;SDS011;52376;47.448;19.354;2023-06-10T05:34:55;2.03;;;0.75;;
65668;SDS011;52376;47.448;19.354;2023-06-10T05:37:23;1.23;;;1.12;;
65668;SDS011;52376;47.448;19.354;2023-06-10T05:39:51;0.70;;;0.40;;
65668;SDS011;52376;47.448;19.354;2023-06-10T05:42:19;1.65;;;0.73;;
65668;SDS011;52376;47.448;19.354;2023-06-10T05:44:47;1.90;;;0.98;;
65668;SDS011;52376;47.448;19.354;2023-06-10T05:47:15;0.32;;;0.32;;
65668;SDS011;52376;47.448;19.354;2023-06-10T05:49:42;0.45;;;0.45;;
65668;SDS011;52376;47.448;19.354;2023-06-10T05:52:10;1.12;;;0.82;;
65668;SDS011;52376;47.448;19.354;2023-06-10T05:54:38;0.37;;;0.30;;
65668;SDS011;52376;47.448;19.354;2023-06-10T05:57:05;2.58;;;0.57;;
65668;SDS011;52376;47.448;19.354;2023-06-10T05:59:33;3.15;;;1.15;;
65668;SDS011;52376;47.448;19.354;2023-06-10T06:02:01;0.82;;;0.50;;
65668;SDS011;52376;47.448;19.354;2023-06-10T06:04:29;1.37;;;0.95;;
65668;SDS011;52376;47.448;19.354;2023-06-10T06:06:57;1.92;;;1.27;;
65668;SDS011;52376;47.448;19.354;2023-06-10T06:09:25;1.87;;;0.70;;
65668;SDS011;52376;47.448;19.354;2023-06-10T06:11:53;1.15;;;1.02;;
65668;SDS011;52376;47.448;19.354;2023-06-10T06:14:20;1.40;;;0.70;;
65668;SDS011;52376;47.448;19.354;2023-06-10T06:16:48;1.40;;;1.00;;
65668;SDS011;52376;47.448;19.354;2023-06-10T06:19:16;5.43;;;1.25;;
65668;SDS011;52376;47.448;19.354;2023-06-10T06:21:43;1.70;;;1.30;;
65668;SDS011;52376;47.448;19.354;2023-06-10T06:24:11;1.80;;;1.27;;
65668;SDS011;52376;47.448;19.354;2023-06-10T06:26:39;1.20;;;0.60;;
65668;SDS011;52376;47.448;19.354;2023-06-10T06:29:07;0.70;;;0.52;;
65668;SDS011;52376;47.448;19.354;2023-06-10T06:31:35;1.65;;;0.75;;
65668;SDS011;52376;47.448;19.354;2023-06-10T06:34:03;0.93;;;0.70;;
65668;SDS011;52376;47.448;19.354;2023-06-10T06:36:30;3.08;;;1.60;;
65668;SDS011;52376;47.448;19.354;2023-06-10T06:38:58;4.47;;;1.10;;
65668;SDS011;52376;47.448;19.354;2023-06-10T06:41:27;2.05;;;1.65;;
65668;SDS011;52376;47.448;19.354;2023-06-10T06:43:55;2.87;;;0.82;;
65668;SDS011;52376;47.448;19.354;2023-06-10T06:46:23;3.47;;;1.48;;
65668;SDS011;52376;47.448;19.354;2023-06-10T06:48:51;1.60;;;0.85;;
65668;SDS011;52376;47.448;19.354;2023-06-10T06:51:19;2.10;;;1.17;;
65668;SDS011;52376;47.448;19.354;2023-06-10T06:53:47;1.92;;;1.10;;
65668;SDS011;52376;47.448;19.354;2023-06-10T06:56:15;2.47;;;1.30;;
65668;SDS011;52376;47.448;19.354;2023-06-10T06:58:42;3.75;;;1.73;;
65668;SDS011;52376;47.448;19.354;2023-06-10T07:01:10;1.30;;;0.80;;
65668;SDS011;52376;47.448;19.354;2023-06-10T07:03:38;4.53;;;1.23;;
65668;SDS011;52376;47.448;19.354;2023-06-10T07:06:06;4.25;;;1.80;;
65668;SDS011;52376;47.448;19.354;2023-06-10T07:08:33;2.95;;;1.33;;
65668;SDS011;52376;47.448;19.354;2023-06-10T07:11:01;2.53;;;1.33;;
65668;SDS011;52376;47.448;19.354;2023-06-10T07:13:29;2.40;;;1.17;;
65668;SDS011;52376;47.448;19.354;2023-06-10T07:15:57;2.65;;;2.17;;
65668;SDS011;52376;47.448;19.354;2023-06-10T07:18:24;2.78;;;1.20;;
65668;SDS011;52376;47.448;19.354;2023-06-10T07:20:52;3.05;;;1.48;;
65668;SDS011;52376;47.448;19.354;2023-06-10T07:23:20;1.90;;;1.10;;
65668;SDS011;52376;47.448;19.354;2023-06-10T07:25:48;2.60;;;1.67;;
65668;SDS011;52376;47.448;19.354;2023-06-10T07:28:15;4.72;;;1.42;;
65668;SDS011;52376;47.448;19.354;2023-06-10T07:30:43;2.28;;;1.25;;
65668;SDS011;52376;47.448;19.354;2023-06-10T07:33:11;1.62;;;1.45;;
65668;SDS011;52376;47.448;19.354;2023-06-10T07:35:39;2.40;;;1.23;;
65668;SDS011;52376;47.448;19.354;2023-06-10T07:38:06;1.62;;;1.08;;
65668;SDS011;52376;47.448;19.354;2023-06-10T07:40:34;1.15;;;0.68;;
65668;SDS011;52376;47.448;19.354;2023-06-10T07:43:02;2.97;;;1.23;;
65668;SDS011;52376;47.448;19.354;2023-06-10T07:45:30;3.42;;;1.48;;
65668;SDS011;52376;47.448;19.354;2023-06-10T07:47:57;3.12;;;1.30;;
65668;SDS011;52376;47.448;19.354;2023-06-10T07:50:25;2.08;;;1.02;;
65668;SDS011;52376;47.448;19.354;2023-06-10T07:52:53;2.87;;;1.27;;
65668;SDS011;52376;47.448;19.354;2023-06-10T07:55:21;1.85;;;1.67;;
65668;SDS011;52376;47.448;19.354;2023-06-10T07:57:48;1.10;;;0.90;;
65668;SDS011;52376;47.448;19.354;2023-06-10T08:00:16;2.37;;;1.50;;
65668;SDS011;52376;47.448;19.354;2023-06-10T08:02:45;2.05;;;1.05;;
65668;SDS011;52376;47.448;19.354;2023-06-10T08:05:12;2.10;;;1.33;;
65668;SDS011;52376;47.448;19.354;2023-06-10T08:07:40;1.83;;;1.45;;
65668;SDS011;52376;47.448;19.354;2023-06-10T08:10:09;4.28;;;1.52;;
65668;SDS011;52376;47.448;19.354;2023-06-10T08:12:37;2.17;;;1.30;;
65668;SDS011;52376;47.448;19.354;2023-06-10T08:15:04;2.33;;;1.50;;
65668;SDS011;52376;47.448;19.354;2023-06-10T08:17:33;2.08;;;1.05;;
65668;SDS011;52376;47.448;19.354;2023-06-10T08:20:01;3.15;;;1.65;;
65668;SDS011;52376;47.448;19.354;2023-06-10T08:22:29;2.60;;;1.20;;
65668;SDS011;52376;47.448;19.354;2023-06-10T08:24:57;2.03;;;1.27;;
65668;SDS011;52376;47.448;19.354;2023-06-10T08:27:25;1.98;;;1.02;;
65668;SDS011;52376;47.448;19.354;2023-06-10T08:29:52;1.40;;;0.60;;
65668;SDS011;52376;47.448;19.354;2023-06-10T08:32:20;1.87;;;1.35;;
65668;SDS011;52376;47.448;19.354;2023-06-10T08:34:48;1.55;;;1.05;;
65668;SDS011;52376;47.448;19.354;2023-06-10T08:37:16;4.00;;;1.08;;
65668;SDS011;52376;47.448;19.354;2023-06-10T08:39:44;2.17;;;1.83;;
65668;SDS011;52376;47.448;19.354;2023-06-10T08:42:22;1.25;;;0.93;;
65668;SDS011;52376;47.448;19.354;2023-06-10T08:44:54;2.80;;;1.20;;
65668;SDS011;52376;47.448;19.354;2023-06-10T08:47:24;1.25;;;1.08;;
65668;SDS011;52376;47.448;19.354;2023-06-10T08:49:52;1.95;;;1.17;;
65668;SDS011;52376;47.448;19.354;2023-06-10T08:52:20;1.00;;;0.88;;
65668;SDS011;52376;47.448;19.354;2023-06-10T08:55:23;3.35;;;1.12;;
65668;SDS011;52376;47.448;19.354;2023-06-10T08:57:45;3.17;;;1.25;;
65668;SDS011;52376;47.448;19.354;2023-06-10T09:00:13;0.68;;;0.47;;
65668;SDS011;52376;47.448;19.354;2023-06-10T09:02:41;0.75;;;0.62;;
65668;SDS011;52376;47.448;19.354;2023-06-10T09:05:10;0.60;;;0.57;;
65668;SDS011;52376;47.448;19.354;2023-06-10T09:07:38;1.65;;;0.65;;
65668;SDS011;52376;47.448;19.354;2023-06-10T09:10:06;0.52;;;0.45;;
65668;SDS011;52376;47.448;19.354;2023-06-10T09:12:35;2.15;;;0.85;;
65668;SDS011;52376;47.448;19.354;2023-06-10T09:15:03;1.15;;;0.40;;
65668;SDS011;52376;47.448;19.354;2023-06-10T09:17:32;0.62;;;0.17;;
65668;SDS011;52376;47.448;19.354;2023-06-10T09:20:00;0.73;;;0.45;;
65668;SDS011;52376;47.448;19.354;2023-06-10T09:22:28;0.22;;;0.22;;
65668;SDS011;52376;47.448;19.354;2023-06-10T09:25:05;0.03;;;0.03;;
65668;SDS011;52376;47.448;19.354;2023-06-10T09:27:44;0.45;;;0.30;;
65668;SDS011;52376;47.448;19.354;2023-06-10T09:30:29;0.60;;;0.30;;
65668;SDS011;52376;47.448;19.354;2023-06-10T09:33:00;2.90;;;0.40;;
65668;SDS011;52376;47.448;19.354;2023-06-10T09:35:29;0.68;;;0.37;;
65668;SDS011;52376;47.448;19.354;2023-06-10T09:37:58;1.35;;;0.28;;
65668;SDS011;52376;47.448;19.354;2023-06-10T09:40:26;0.22;;;0.22;;
65668;SDS011;52376;47.448;19.354;2023-06-10T09:42:58;0.30;;;0.20;;
65668;SDS011;52376;47.448;19.354;2023-06-10T09:45:29;0.35;;;0.20;;
65668;SDS011;52376;47.448;19.354;2023-06-10T09:47:58;1.75;;;0.50;;
65668;SDS011;52376;47.448;19.354;2023-06-10T09:50:26;0.10;;;0.10;;
65668;SDS011;52376;47.448;19.354;2023-06-10T09:52:54;1.52;;;0.60;;
65668;SDS011;52376;47.448;19.354;2023-06-10T09:55:22;2.10;;;0.60;;
65668;SDS011;52376;47.448;19.354;2023-06-10T09:57:53;0.43;;;0.30;;
65668;SDS011;52376;47.448;19.354;2023-06-10T10:00:22;0.55;;;0.22;;
65668;SDS011;52376;47.448;19.354;2023-06-10T10:02:51;0.30;;;0.22;;
65668;SDS011;52376;47.448;19.354;2023-06-10T10:05:20;0.57;;;0.30;;
65668;SDS011;52376;47.448;19.354;2023-06-10T10:07:49;1.00;;;0.65;;
65668;SDS011;52376;47.448;19.354;2023-06-10T10:10:17;0.57;;;0.37;;
65668;SDS011;52376;47.448;19.354;2023-06-10T10:12:47;0.88;;;0.50;;
65668;SDS011;52376;47.448;19.354;2023-06-10T10:15:16;0.35;;;0.35;;
65668;SDS011;52376;47.448;19.354;2023-06-10T10:20:33;0.77;;;0.30;;
65668;SDS011;52376;47.448;19.354;2023-06-10T10:23:03;0.88;;;0.52;;
65668;SDS011;52376;47.448;19.354;2023-06-10T10:25:35;1.35;;;0.62;;
65668;SDS011;52376;47.448;19.354;2023-06-10T10:28:10;1.50;;;0.80;;
65668;SDS011;52376;47.448;19.354;2023-06-10T10:30:41;1.60;;;0.90;;
65668;SDS011;52376;47.448;19.354;2023-06-10T10:33:16;1.10;;;0.80;;
65668;SDS011;52376;47.448;19.354;2023-06-10T10:35:46;1.45;;;0.70;;
65668;SDS011;52376;47.448;19.354;2023-06-10T10:38:14;1.30;;;0.80;;
65668;SDS011;52376;47.448;19.354;2023-06-10T10:40:42;0.68;;;0.65;;
65668;SDS011;52376;47.448;19.354;2023-06-10T10:43:11;0.47;;;0.43;;
65668;SDS011;52376;47.448;19.354;2023-06-10T10:45:39;0.62;;;0.62;;
65668;SDS011;52376;47.448;19.354;2023-06-10T10:48:08;0.90;;;0.57;;
65668;SDS011;52376;47.448;19.354;2023-06-10T10:50:36;1.95;;;0.80;;
65668;SDS011;52376;47.448;19.354;2023-06-10T10:53:05;0.77;;;0.43;;
65668;SDS011;52376;47.448;19.354;2023-06-10T10:55:33;0.35;;;0.35;;
65668;SDS011;52376;47.448;19.354;2023-06-10T10:58:04;0.73;;;0.73;;
65668;SDS011;52376;47.448;19.354;2023-06-10T11:00:37;0.62;;;0.40;;
65668;SDS011;52376;47.448;19.354;2023-06-10T11:03:15;0.77;;;0.68;;
65668;SDS011;52376;47.448;19.354;2023-06-10T11:05:45;0.77;;;0.60;;
65668;SDS011;52376;47.448;19.354;2023-06-10T11:08:14;0.30;;;0.22;;
65668;SDS011;52376;47.448;19.354;2023-06-10T11:10:51;0.80;;;0.65;;
65668;SDS011;52376;47.448;19.354;2023-06-10T11:13:20;0.20;;;0.20;;
65668;SDS011;52376;47.448;19.354;2023-06-10T11:15:49;1.03;;;0.50;;
65668;SDS011;52376;47.448;19.354;2023-06-10T11:20:54;4.68;;;0.50;;
65668;SDS011;52376;47.448;19.354;2023-06-10T11:31:32;1.08;;;0.60;;
65668;SDS011;52376;47.448;19.354;2023-06-10T11:34:01;0.30;;;0.20;;
65668;SDS011;52376;47.448;19.354;2023-06-10T11:36:30;0.20;;;0.20;;
65668;SDS011;52376;47.448;19.354;2023-06-10T11:39:00;0.82;;;0.35;;
65668;SDS011;52376;47.448;19.354;2023-06-10T11:41:29;0.57;;;0.37;;
65668;SDS011;52376;47.448;19.354;2023-06-10T11:44:02;1.35;;;0.52;;
65668;SDS011;52376;47.448;19.354;2023-06-10T11:46:31;0.57;;;0.50;;
65668;SDS011;52376;47.448;19.354;2023-06-10T11:48:59;0.47;;;0.47;;
65668;SDS011;52376;47.448;19.354;2023-06-10T11:51:28;0.45;;;0.40;;
65668;SDS011;52376;47.448;19.354;2023-06-10T11:53:58;0.73;;;0.45;;
65668;SDS011;52376;47.448;19.354;2023-06-10T11:56:26;0.35;;;0.25;;
65668;SDS011;52376;47.448;19.354;2023-06-10T11:58:55;0.70;;;0.57;;
65668;SDS011;52376;47.448;19.354;2023-06-10T12:01:25;0.30;;;0.30;;
65668;SDS011;52376;47.448;19.354;2023-06-10T12:04:00;1.62;;;1.00;;
65668;SDS011;52376;47.448;19.354;2023-06-10T12:06:43;0.68;;;0.43;;
65668;SDS011;52376;47.448;19.354;2023-06-10T12:09:13;0.50;;;0.40;;
65668;SDS011;52376;47.448;19.354;2023-06-10T12:12:01;0.50;;;0.40;;
65668;SDS011;52376;47.448;19.354;2023-06-10T12:19:50;0.50;;;0.40;;
65668;SDS011;52376;47.448;19.354;2023-06-10T12:22:18;0.98;;;0.60;;
65668;SDS011;52376;47.448;19.354;2023-06-10T12:24:56;1.00;;;0.52;;
65668;SDS011;52376;47.448;19.354;2023-06-10T12:27:32;1.02;;;0.40;;
65668;SDS011;52376;47.448;19.354;2023-06-10T12:30:01;0.93;;;0.57;;
65668;SDS011;52376;47.448;19.354;2023-06-10T12:32:38;0.52;;;0.52;;
65668;SDS011;52376;47.448;19.354;2023-06-10T12:35:12;0.75;;;0.47;;
65668;SDS011;52376;47.448;19.354;2023-06-10T12:37:41;0.20;;;0.20;;
65668;SDS011;52376;47.448;19.354;2023-06-10T12:40:10;0.82;;;0.35;;
65668;SDS011;52376;47.448;19.354;2023-06-10T12:42:38;3.35;;;1.20;;
65668;SDS011;52376;47.448;19.354;2023-06-10T12:45:06;0.45;;;0.40;;
65668;SDS011;52376;47.448;19.354;2023-06-10T12:47:36;0.22;;;0.22;;
65668;SDS011;52376;47.448;19.354;2023-06-10T12:50:05;1.42;;;1.33;;
65668;SDS011;52376;47.448;19.354;2023-06-10T12:52:33;0.30;;;0.30;;
65668;SDS011;52376;47.448;19.354;2023-06-10T12:55:01;0.37;;;0.32;;
65668;SDS011;52376;47.448;19.354;2023-06-10T12:57:29;1.17;;;0.73;;
65668;SDS011;52376;47.448;19.354;2023-06-10T12:59:56;1.35;;;0.28;;
65668;SDS011;52376;47.448;19.354;2023-06-10T13:02:25;0.62;;;0.43;;
65668;SDS011;52376;47.448;19.354;2023-06-10T13:04:53;1.30;;;0.50;;
65668;SDS011;52376;47.448;19.354;2023-06-10T13:07:21;0.62;;;0.40;;
65668;SDS011;52376;47.448;19.354;2023-06-10T13:09:48;0.82;;;0.40;;
65668;SDS011;52376;47.448;19.354;2023-06-10T13:12:16;0.57;;;0.20;;
65668;SDS011;52376;47.448;19.354;2023-06-10T13:14:49;0.45;;;0.35;;
65668;SDS011;52376;47.448;19.354;2023-06-10T13:17:17;0.10;;;0.10;;
65668;SDS011;52376;47.448;19.354;2023-06-10T13:19:44;0.47;;;0.30;;
65668;SDS011;52376;47.448;19.354;2023-06-10T13:22:12;0.30;;;0.30;;
65668;SDS011;52376;47.448;19.354;2023-06-10T13:24:40;0.75;;;0.30;;
65668;SDS011;52376;47.448;19.354;2023-06-10T13:27:08;2.97;;;0.50;;
65668;SDS011;52376;47.448;19.354;2023-06-10T13:29:36;0.40;;;0.40;;
65668;SDS011;52376;47.448;19.354;2023-06-10T13:32:04;0.47;;;0.30;;
65668;SDS011;52376;47.448;19.354;2023-06-10T13:34:32;0.57;;;0.35;;
65668;SDS011;52376;47.448;19.354;2023-06-10T13:37:00;0.85;;;0.40;;
65668;SDS011;52376;47.448;19.354;2023-06-10T13:39:28;0.40;;;0.30;;
65668;SDS011;52376;47.448;19.354;2023-06-10T13:41:55;0.75;;;0.50;;
65668;SDS011;52376;47.448;19.354;2023-06-10T13:44:23;0.55;;;0.35;;
65668;SDS011;52376;47.448;19.354;2023-06-10T13:46:51;0.25;;;0.20;;
65668;SDS011;52376;47.448;19.354;2023-06-10T13:49:19;0.98;;;0.57;;
65668;SDS011;52376;47.448;19.354;2023-06-10T13:51:47;0.40;;;0.40;;
65668;SDS011;52376;47.448;19.354;2023-06-10T13:54:14;2.35;;;0.40;;
65668;SDS011;52376;47.448;19.354;2023-06-10T13:56:42;0.22;;;0.22;;
65668;SDS011;52376;47.448;19.354;2023-06-10T13:59:11;0.30;;;0.20;;
65668;SDS011;52376;47.448;19.354;2023-06-10T14:01:38;1.17;;;0.43;;
65668;SDS011;52376;47.448;19.354;2023-06-10T14:04:06;0.30;;;0.20;;
65668;SDS011;52376;47.448;19.354;2023-06-10T14:06:34;0.35;;;0.22;;
65668;SDS011;52376;47.448;19.354;2023-06-10T14:09:04;0.50;;;0.37;;
65668;SDS011;52376;47.448;19.354;2023-06-10T14:11:39;0.32;;;0.30;;
65668;SDS011;52376;47.448;19.354;2023-06-10T14:14:07;1.05;;;0.60;;
65668;SDS011;52376;47.448;19.354;2023-06-10T14:16:35;0.93;;;0.62;;
65668;SDS011;52376;47.448;19.354;2023-06-10T14:19:03;0.20;;;0.20;;
65668;SDS011;52376;47.448;19.354;2023-06-10T14:21:30;0.75;;;0.50;;
65668;SDS011;52376;47.448;19.354;2023-06-10T14:23:59;0.37;;;0.28;;
65668;SDS011;52376;47.448;19.354;2023-06-10T14:26:27;0.30;;;0.30;;
65668;SDS011;52376;47.448;19.354;2023-06-10T14:28:54;0.35;;;0.25;;
65668;SDS011;52376;47.448;19.354;2023-06-10T14:31:23;0.40;;;0.40;;
65668;SDS011;52376;47.448;19.354;2023-06-10T14:33:50;0.82;;;0.37;;
65668;SDS011;52376;47.448;19.354;2023-06-10T14:36:19;0.13;;;0.13;;
65668;SDS011;52376;47.448;19.354;2023-06-10T14:38:47;0.60;;;0.45;;
65668;SDS011;52376;47.448;19.354;2023-06-10T14:41:14;0.17;;;0.17;;
65668;SDS011;52376;47.448;19.354;2023-06-10T14:43:42;0.40;;;0.35;;
65668;SDS011;52376;47.448;19.354;2023-06-10T14:46:10;0.22;;;0.20;;
65668;SDS011;52376;47.448;19.354;2023-06-10T14:48:38;0.60;;;0.60;;
65668;SDS011;52376;47.448;19.354;2023-06-10T14:51:06;0.15;;;0.15;;
65668;SDS011;52376;47.448;19.354;2023-06-10T14:53:34;0.75;;;0.30;;
65668;SDS011;52376;47.448;19.354;2023-06-10T14:56:02;0.57;;;0.40;;
65668;SDS011;52376;47.448;19.354;2023-06-10T14:58:30;0.30;;;0.22;;
65668;SDS011;52376;47.448;19.354;2023-06-10T15:00:58;0.45;;;0.40;;
65668;SDS011;52376;47.448;19.354;2023-06-10T15:03:25;0.75;;;0.50;;
65668;SDS011;52376;47.448;19.354;2023-06-10T15:05:54;1.02;;;0.47;;